YVZ weather

Deer Lake Airport
Deer Lake, Ontario, Canada

Public forecast

Using degrees Celsius for public forecast. Weather courtesy of forecast.io.

METAR (pilot weather report)

Closest report is Sandy Lake Airport, 35.7 nm (66.2 km) NE. Retrieved 2019/05/25 20:43 UTC (0 seconds ago):

CZSJ 252043Z AUTO 34007G15KT 320V020 6SM BR BKN012 OVC018 03/02 A2987 RMK SLP128

TAF (pilot weather forecast)

Closest forecast is Sandy Lake Airport, 35.7 nm (66.2 km) NE. Retrieved 2019/05/25 16:00 UTC (5 hours ago):

TAF CZSJ 251538Z 2516/2522 36010KT P6SM OVC012 TEMPO 2516/2517 5SM BR OVC008 FM251700 34008G18KT P6SM BKN025 TEMPO 2517/2521 P6SM -SHRA OVC020 FM252100 35010G20KT P6SM OVC025 TEMPO 2521/2522 OVC020 RMK FCST BASED ON AUTO OBS. NXT FCST WILL BE ISSUED AT 260945Z